Time;durP1;ratioP1;P1;durP2;ratioP2;P2;SDS_P1;SDS_P2;PMS_P1;PMS_P2;Temp;Humidity;BMP_temperature;BMP_pressure;BME280_temperature;BME280_humidity;BME280_pressure;Samples;Min_cycle;Max_cycle;Signal;HPM_P1;HPM_P2
2023/07/22 00:10:24;;;;;;;4.00;3.35;;;;;;;22.32;60.21;99892.59;41651866;28;20111;-83
2023/07/22 00:30:25;;;;;;;7.60;3.60;;;;;;;22.21;60.56;99884.81;41661762;28;21006;-81
2023/07/22 00:50:26;;;;;;;8.63;4.30;;;;;;;22.06;60.91;99892.31;41658538;28;20045;-83
2023/07/22 01:10:28;;;;;;;6.80;4.40;;;;;;;21.87;61.96;99932.63;41675984;28;20179;-84
2023/07/22 01:30:29;;;;;;;5.80;4.45;;;;;;;21.77;62.24;99940.50;41653861;28;20034;-81
2023/07/22 01:50:32;;;;;;;4.90;3.80;;;;;;;21.74;61.76;99965.34;41638862;28;20156;-81
2023/07/22 02:10:32;;;;;;;6.05;4.63;;;;;;;21.66;61.68;99978.31;41644653;28;20105;-83
2023/07/22 02:30:37;;;;;;;5.63;4.40;;;;;;;21.56;62.36;100014.31;41642743;28;20870;-82
2023/07/22 02:50:37;;;;;;;6.60;4.07;;;;;;;21.54;61.87;100026.78;41637181;28;20116;-82
2023/07/22 03:10:38;;;;;;;5.85;4.72;;;;;;;21.34;62.14;100052.16;41637578;28;20050;-81
2023/07/22 03:30:38;;;;;;;5.43;4.80;;;;;;;21.30;62.81;100043.69;41674568;28;20091;-82
2023/07/22 03:50:38;;;;;;;7.05;4.53;;;;;;;21.27;63.01;100054.47;41672353;28;20041;-83
2023/07/22 04:10:52;;;;;;;7.28;5.25;;;;;;;21.29;63.14;100063.06;41665955;28;20049;-82
2023/07/22 04:30:58;;;;;;;8.73;5.63;;;;;;;21.40;63.42;100041.94;41664640;28;20584;-83
2023/07/22 04:50:59;;;;;;;8.18;4.65;;;;;;;21.55;62.80;100060.06;41655977;28;20057;-84
2023/07/22 05:10:59;;;;;;;6.28;3.67;;;;;;;21.56;61.65;100080.19;41649667;28;20131;-84
2023/07/22 05:31:00;;;;;;;6.05;4.20;;;;;;;21.52;61.67;100105.94;41633259;28;20191;-84
2023/07/22 05:51:00;;;;;;;5.43;4.13;;;;;;;21.52;61.47;100119.13;41618496;28;20041;-84
2023/07/22 06:11:01;;;;;;;5.90;4.35;;;;;;;21.55;60.02;100131.19;41601991;28;20040;-80
2023/07/22 06:31:02;;;;;;;6.50;4.70;;;;;;;21.38;59.95;100133.41;41590536;28;20056;-82
2023/07/22 06:51:03;;;;;;;6.55;4.30;;;;;;;21.52;59.92;100134.91;41619521;28;20054;-81
2023/07/22 07:11:04;;;;;;;8.50;4.00;;;;;;;21.77;60.71;100143.44;41601203;28;20037;-82
2023/07/22 07:31:05;;;;;;;7.43;4.25;;;;;;;21.99;58.87;100155.63;41644459;28;20038;-82
2023/07/22 07:51:06;;;;;;;6.10;4.10;;;;;;;22.29;58.92;100168.97;41629990;28;20046;-84
2023/07/22 08:11:10;;;;;;;4.15;3.25;;;;;;;22.61;55.73;100207.63;41644628;28;20048;-80
2023/07/22 08:31:10;;;;;;;4.15;3.20;;;;;;;22.78;54.75;100233.41;41651223;28;20042;-81
2023/07/22 08:51:14;;;;;;;3.78;3.22;;;;;;;23.05;53.01;100234.59;41648373;28;20054;-81
2023/07/22 09:11:15;;;;;;;4.40;2.80;;;;;;;23.25;50.99;100253.97;41648729;28;20022;-81
2023/07/22 09:31:16;;;;;;;4.20;2.70;;;;;;;23.64;50.38;100261.13;41642641;28;20496;-85
2023/07/22 09:51:18;;;;;;;3.22;2.30;;;;;;;23.72;48.20;100253.38;41649934;28;20045;-81
2023/07/22 10:11:20;;;;;;;3.53;2.38;;;;;;;23.98;49.46;100247.53;41636628;28;20049;-89
2023/07/22 10:31:22;;;;;;;2.78;1.88;;;;;;;24.18;46.74;100279.25;41627513;28;20475;-88
2023/07/22 10:51:22;;;;;;;2.28;1.60;;;;;;;24.46;45.97;100251.06;41620682;28;20165;-86
2023/07/22 11:11:40;;;;;;;5.43;1.90;;;;;;;24.62;46.87;100239.88;41608828;28;20075;-81
2023/07/22 11:31:45;;;;;;;1.83;1.60;;;;;;;24.68;46.82;100218.16;41631107;28;20045;-81
2023/07/22 11:51:45;;;;;;;2.90;1.50;;;;;;;24.81;44.72;100214.31;41630577;28;20033;-80
2023/07/22 12:11:49;;;;;;;1.90;1.23;;;;;;;24.93;44.79;100198.06;41637622;28;20458;-81
2023/07/22 12:31:50;;;;;;;1.60;1.20;;;;;;;25.21;41.87;100195.38;41634023;28;20054;-90
2023/07/22 12:51:50;;;;;;;2.42;1.50;;;;;;;25.40;42.80;100189.16;41628685;28;20045;-85
2023/07/22 13:11:51;;;;;;;2.45;1.30;;;;;;;25.63;38.84;100177.25;41601677;28;20053;-86
2023/07/22 13:31:53;;;;;;;1.67;1.08;;;;;;;25.86;40.95;100159.84;41605126;28;20025;-88
2023/07/22 13:51:54;;;;;;;1.53;1.20;;;;;;;26.09;40.49;100162.00;41657664;28;20048;-86
2023/07/22 14:11:55;;;;;;;6.00;1.40;;;;;;;26.27;37.14;100151.34;41620321;28;20065;-85
2023/07/22 14:31:57;;;;;;;3.72;1.40;;;;;;;26.31;40.59;100128.78;41630500;28;20553;-84
2023/07/22 14:51:58;;;;;;;2.95;1.13;;;;;;;26.34;41.53;100131.13;41632447;28;20037;-86
2023/07/22 15:11:59;;;;;;;3.15;1.00;;;;;;;26.40;42.16;100126.16;41653441;28;20412;-86
2023/07/22 15:32:01;;;;;;;1.20;0.98;;;;;;;26.44;42.10;100104.44;41695246;28;20068;-85
2023/07/22 15:52:01;;;;;;;3.67;1.40;;;;;;;26.46;42.44;100130.84;41702712;28;20076;-85
2023/07/22 16:12:03;;;;;;;1.20;1.00;;;;;;;26.42;42.83;100127.66;41682327;28;20049;-85
2023/07/22 16:32:03;;;;;;;0.80;0.80;;;;;;;26.34;42.74;100109.91;41657144;28;20172;-85
2023/07/22 16:52:04;;;;;;;1.08;0.85;;;;;;;26.29;43.32;100114.84;41640961;28;20034;-86
2023/07/22 17:12:05;;;;;;;1.25;0.95;;;;;;;26.26;43.29;100109.84;41645471;28;20069;-85
2023/07/22 17:32:07;;;;;;;0.90;0.90;;;;;;;26.20;43.74;100102.53;41649777;28;20107;-85
2023/07/22 17:52:08;;;;;;;1.50;0.80;;;;;;;26.12;43.97;100105.97;41673971;28;20497;-85
2023/07/22 18:12:13;;;;;;;0.93;0.80;;;;;;;26.09;44.21;100127.50;41658746;28;20041;-85
2023/07/22 18:32:14;;;;;;;1.02;0.90;;;;;;;26.04;43.72;100156.31;41653819;28;20050;-85
2023/07/22 18:52:15;;;;;;;0.82;0.82;;;;;;;26.00;43.38;100166.41;41653982;28;20085;-85
2023/07/22 19:12:15;;;;;;;1.10;0.95;;;;;;;25.97;44.00;100214.47;41641794;28;20041;-85
2023/07/22 19:32:16;;;;;;;1.77;0.98;;;;;;;25.94;43.75;100229.84;41656572;28;20168;-84
2023/07/22 19:52:17;;;;;;;1.25;1.00;;;;;;;25.92;43.78;100239.81;41644056;28;20444;-84
2023/07/22 20:12:23;;;;;;;0.95;0.90;;;;;;;25.89;43.76;100244.41;41661614;28;20053;-84
2023/07/22 20:32:24;;;;;;;1.25;0.90;;;;;;;25.87;44.20;100282.69;41668615;28;20091;-85
2023/07/22 20:52:25;;;;;;;1.35;0.93;;;;;;;25.87;44.37;100277.41;41669475;28;20034;-84
2023/07/22 21:12:26;;;;;;;1.08;0.95;;;;;;;25.87;43.94;100275.56;41663216;28;20037;-84
2023/07/22 21:32:27;;;;;;;0.98;0.93;;;;;;;25.87;44.14;100285.34;41663610;28;20033;-85
2023/07/22 21:52:27;;;;;;;0.85;0.85;;;;;;;25.85;44.53;100303.22;41659131;28;22867;-85
2023/07/22 22:12:28;;;;;;;1.10;1.00;;;;;;;25.83;44.61;100302.53;41637850;28;20044;-85
2023/07/22 22:32:28;;;;;;;1.00;0.90;;;;;;;25.84;44.30;100304.22;41628410;28;20382;-85
2023/07/22 22:52:28;;;;;;;1.02;0.93;;;;;;;25.83;44.38;100313.16;41629156;28;20029;-85
2023/07/22 23:12:29;;;;;;;1.05;0.95;;;;;;;25.81;44.57;100329.22;41633043;28;20049;-85
2023/07/22 23:32:29;;;;;;;1.25;1.15;;;;;;;25.82;44.47;100330.91;41821459;28;20056;-84
2023/07/22 23:52:30;;;;;;;1.17;1.10;;;;;;;25.80;44.37;100337.34;41837862;28;20057;-85
